Mesa.AZweather.com - Mesa, AZ
   Red Mountain Frwy and University Dr., El 1518 ft.
        --- Friday  May 1, 2020 ---
 
 High Temperature ..  102F at 16:46
 Low Temperature ...  65F at 05:39
 
 High Humidity .....  32% at 02:27
 Low Humidity ......  7% at 15:06
 
 High Barometer ....  29.93 at 09:37
 Low Barometer .....  29.81 at 16:32
 
 High Dew Point ....  39F at 00:00
 Low Dew Point .....  24F at 15:25
 
 Rainfall Total ....  0.00 in.
 
 High Wind Speed ...  ---
                     
 
 Time   Temp  Humi  Rain     Baro  DewPt  Wind
00:00,  74F, 29%, 0.00 in, 29.84, 39F, ---
00:30,  72F, 30%, 0.00 in, 29.85, 39F, ---
01:00,  72F, 29%, 0.00 in, 29.84, 38F, ---
01:30,  71F, 30%, 0.00 in, 29.84, 39F, ---
02:00,  69F, 31%, 0.00 in, 29.84, 38F, ---
02:30,  68F, 32%, 0.00 in, 29.83, 37F, ---
03:00,  67F, 32%, 0.00 in, 29.84, 36F, ---
03:30,  67F, 31%, 0.00 in, 29.84, 35F, ---
04:00,  67F, 30%, 0.00 in, 29.85, 34F, ---
04:30,  67F, 30%, 0.00 in, 29.85, 34F, ---
05:00,  66F, 30%, 0.00 in, 29.85, 34F, ---
05:30,  66F, 29%, 0.00 in, 29.87, 33F, ---
06:00,  65F, 30%, 0.00 in, 29.87, 32F, ---
06:30,  66F, 30%, 0.00 in, 29.88, 34F, ---
07:00,  69F, 28%, 0.00 in, 29.88, 35F, ---
07:30,  74F, 25%, 0.00 in, 29.90, 35F, ---
08:00,  80F, 18%, 0.00 in, 29.91, 33F, ---
08:30,  85F, 15%, 0.00 in, 29.90, 32F, ---
09:00,  88F, 14%, 0.00 in, 29.91, 33F, ---
09:30,  89F, 14%, 0.00 in, 29.92, 34F, ---
10:00,  91F, 13%, 0.00 in, 29.92, 34F, ---
10:30,  92F, 12%, 0.00 in, 29.92, 32F, ---
11:00,  93F, 12%, 0.00 in, 29.92, 33F, ---
11:30,  95F, 11%, 0.00 in, 29.92, 32F, ---
12:00,  97F, 10%, 0.00 in, 29.91, 31F, ---
12:30,  98F, 9%, 0.00 in, 29.91, 30F, ---
13:00,  97F, 9%, 0.00 in, 29.89, 29F, ---
13:30,  98F, 9%, 0.00 in, 29.88, 30F, ---
14:00,  99F, 8%, 0.00 in, 29.88, 27F, ---
14:30,  99F, 8%, 0.00 in, 29.86, 27F, ---
15:00,  101F, 8%, 0.00 in, 29.85, 29F, ---
15:30,  100F, 7%, 0.00 in, 29.83, 25F, ---
16:00,  101F, 8%, 0.00 in, 29.83, 29F, ---
16:30,  100F, 8%, 0.00 in, 29.82, 29F, ---
17:00,  101F, 9%, 0.00 in, 29.82, 31F, ---
17:30,  100F, 9%, 0.00 in, 29.82, 31F, ---
18:00,  98F, 10%, 0.00 in, 29.81, 33F, ---
18:30,  96F, 11%, 0.00 in, 29.82, 34F, ---
19:00,  93F, 12%, 0.00 in, 29.82, 33F, ---
19:30,  89F, 14%, 0.00 in, 29.83, 34F, ---
20:00,  85F, 16%, 0.00 in, 29.83, 33F, ---
20:30,  82F, 19%, 0.00 in, 29.84, 36F, ---
21:00,  79F, 19%, 0.00 in, 29.86, 33F, ---
21:30,  80F, 18%, 0.00 in, 29.88, 33F, ---
22:00,  80F, 17%, 0.00 in, 29.88, 32F, ---
22:30,  76F, 19%, 0.00 in, 29.88, 30F, ---
23:00,  73F, 23%, 0.00 in, 29.88, 33F, ---
23:30,  71F, 23%, 0.00 in, 29.88, 32F, ---
23:59,  69F, 25%, 0.00 in, 29.89, 32F, ---